Time;durP1;ratioP1;P1;durP2;ratioP2;P2;SDS_P1;SDS_P2;PMS_P1;PMS_P2;Temp;Humidity;BMP_temperature;BMP_pressure;BME280_temperature;BME280_humidity;BME280_pressure;Samples;Min_cycle;Max_cycle;Signal;HPM_P1;HPM_P2
2021/04/10 00:01:28;;;;;;;;;;;;;;;3.28;58.74;96373.91;3619026;39;19943;-59
2021/04/10 00:03:55;;;;;;;;;;;;;;;3.29;58.90;96378.91;3616692;39;20359;-59
2021/04/10 00:06:22;;;;;;;;;;;;;;;3.29;59.32;96375.53;3618694;39;19943;-59
2021/04/10 00:08:49;;;;;;;;;;;;;;;3.29;59.40;96378.13;3618586;39;19939;-59
2021/04/10 00:11:16;;;;;;;;;;;;;;;3.27;59.97;96365.28;3612457;39;20394;-59
2021/04/10 00:13:44;;;;;;;;;;;;;;;3.24;60.37;96370.91;3622187;39;19943;-60
2021/04/10 00:16:12;;;;;;;;;;;;;;;3.22;59.67;96367.69;3630185;39;19943;-59
2021/04/10 00:18:39;;;;;;;;;;;;;;;3.20;60.03;96374.91;3620511;39;19969;-59
2021/04/10 00:21:10;;;;;;;;;;;;;;;3.16;59.64;96369.28;3616393;39;20276;-58
2021/04/10 00:23:43;;;;;;;;;;;;;;;3.15;60.04;96366.84;3628377;39;20203;-59
2021/04/10 00:26:11;;;;;;;;;;;;;;;3.12;60.98;96365.44;3614289;39;19983;-58
2021/04/10 00:28:42;;;;;;;;;;;;;;;3.08;61.92;96370.25;3621257;39;20502;-58
2021/04/10 00:31:09;;;;;;;;;;;;;;;3.01;61.63;96364.22;3622463;39;19947;-58
2021/04/10 00:33:37;;;;;;;;;;;;;;;3.01;61.34;96364.22;3627093;39;20182;-59
2021/04/10 00:36:05;;;;;;;;;;;;;;;2.97;61.21;96355.19;3621045;39;20578;-65
2021/04/10 00:38:32;;;;;;;;;;;;;;;2.94;61.04;96357.41;3620935;39;20270;-59
2021/04/10 00:41:00;;;;;;;;;;;;;;;2.89;61.48;96358.78;3608765;39;19935;-59
2021/04/10 00:43:27;;;;;;;;;;;;;;;2.86;61.68;96359.16;3621654;39;19943;-59
2021/04/10 00:45:55;;;;;;;;;;;;;;;2.85;61.58;96356.75;3616960;39;19953;-59
2021/04/10 00:48:22;;;;;;;;;;;;;;;2.83;62.28;96351.72;3629879;39;19949;-59
2021/04/10 00:50:53;;;;;;;;;;;;;;;2.82;62.34;96352.75;3621189;39;19942;-59
2021/04/10 00:53:22;;;;;;;;;;;;;;;2.81;62.19;96350.31;3621195;39;19953;-59
2021/04/10 00:55:52;;;;;;;;;;;;;;;2.80;62.21;96348.72;3618361;39;19950;-58
2021/04/10 00:58:19;;;;;;;;;;;;;;;2.79;62.72;96336.69;3610299;39;19945;-59
2021/04/10 01:00:46;;;;;;;;;;;;;;;2.79;62.83;96341.88;3608529;39;19943;-58
2021/04/10 01:03:14;;;;;;;;;;;;;;;2.75;63.34;96336.28;3607445;39;20211;-59
2021/04/10 01:05:41;;;;;;;;;;;;;;;2.76;62.36;96340.50;3619757;39;19942;-59
2021/04/10 01:08:09;;;;;;;;;;;;;;;2.74;62.75;96334.66;3620544;39;20971;-58
2021/04/10 01:10:37;;;;;;;;;;;;;;;2.71;63.53;96337.66;3619881;39;20570;-58
2021/04/10 01:13:14;;;;;;;;;;;;;;;2.72;63.21;96337.47;3619363;39;19942;-58
2021/04/10 01:15:44;;;;;;;;;;;;;;;2.73;63.05;96328.66;3611426;39;19935;-65
2021/04/10 01:18:15;;;;;;;;;;;;;;;2.70;62.72;96321.22;3627650;39;19941;-59
2021/04/10 01:20:42;;;;;;;;;;;;;;;2.67;62.63;96334.63;3612154;39;19935;-59
2021/04/10 01:23:12;;;;;;;;;;;;;;;2.64;62.89;96324.63;3616422;39;19949;-59
2021/04/10 01:25:57;;;;;;;;;;;;;;;2.59;63.43;96335.59;3620789;39;20254;-58
2021/04/10 01:28:24;;;;;;;;;;;;;;;2.56;63.31;96333.41;3618692;39;19947;-58
2021/04/10 01:30:51;;;;;;;;;;;;;;;2.52;63.18;96326.97;3617013;39;19953;-59
2021/04/10 01:33:21;;;;;;;;;;;;;;;2.48;64.03;96325.75;3619789;39;19946;-59
2021/04/10 01:35:52;;;;;;;;;;;;;;;2.45;64.10;96321.75;3625663;39;19957;-59
2021/04/10 01:38:21;;;;;;;;;;;;;;;2.43;63.71;96315.13;3620063;39;19950;-59
2021/04/10 01:40:49;;;;;;;;;;;;;;;2.35;64.24;96315.28;3619559;39;19953;-59
2021/04/10 01:43:17;;;;;;;;;;;;;;;2.29;63.90;96314.25;3618606;39;19941;-59
2021/04/10 01:45:46;;;;;;;;;;;;;;;2.21;64.90;96317.00;3606064;39;20276;-59
2021/04/10 01:48:15;;;;;;;;;;;;;;;2.10;65.28;96318.34;3628926;39;20494;-59
2021/04/10 01:50:43;;;;;;;;;;;;;;;2.06;65.32;96323.13;3612964;39;19941;-59
2021/04/10 01:53:13;;;;;;;;;;;;;;;2.02;65.37;96311.53;3621051;39;19946;-59
2021/04/10 01:55:41;;;;;;;;;;;;;;;1.94;65.89;96309.88;3617460;39;19941;-59
2021/04/10 01:58:18;;;;;;;;;;;;;;;1.87;66.03;96309.00;3609668;39;20525;-59
2021/04/10 02:00:48;;;;;;;;;;;;;;;1.82;66.51;96317.38;3617021;39;20447;-59
2021/04/10 02:03:18;;;;;;;;;;;;;;;1.75;66.51;96319.16;3625119;39;19943;-59
2021/04/10 02:05:47;;;;;;;;;;;;;;;1.71;66.84;96304.91;3619982;39;19976;-59
2021/04/10 02:08:36;;;;;;;;;;;;;;;1.69;67.32;96312.91;3613761;39;19943;-59
2021/04/10 02:11:14;;;;;;;;;;;;;;;1.66;67.03;96308.06;3614876;39;19945;-59
2021/04/10 02:13:49;;;;;;;;;;;;;;;1.66;67.23;96313.28;3621085;39;19935;-59
2021/04/10 02:16:24;;;;;;;;;;;;;;;1.63;67.10;96318.06;3624804;39;20249;-59
2021/04/10 02:18:56;;;;;;;;;;;;;;;1.59;67.22;96316.81;3619271;39;20208;-59
2021/04/10 02:21:27;;;;;;;;;;;;;;;1.53;67.62;96321.81;3623995;39;19943;-59
2021/04/10 02:23:57;;;;;;;;;;;;;;;1.48;67.58;96310.31;3620474;39;19939;-59
2021/04/10 02:26:37;;;;;;;;;;;;;;;1.44;67.21;96309.13;3620732;39;19942;-59
2021/04/10 02:29:09;;;;;;;;;;;;;;;1.35;67.50;96300.63;3617294;39;19935;-59
2021/04/10 02:31:44;;;;;;;;;;;;;;;1.30;68.29;96302.97;3619487;39;19949;-59
2021/04/10 02:34:17;;;;;;;;;;;;;;;1.25;68.53;96307.94;3621204;39;19964;-62
2021/04/10 02:36:46;;;;;;;;;;;;;;;1.20;68.55;96311.91;3624243;39;19949;-59
2021/04/10 02:39:14;;;;;;;;;;;;;;;1.14;68.57;96304.88;3618383;39;19941;-59
2021/04/10 02:41:44;;;;;;;;;;;;;;;1.07;68.35;96302.19;3616656;39;19947;-62
2021/04/10 02:44:13;;;;;;;;;;;;;;;0.96;69.30;96304.47;3617586;39;20497;-58
2021/04/10 02:46:48;;;;;;;;;;;;;;;0.91;70.17;96303.25;3631294;39;19955;-59
2021/04/10 02:49:21;;;;;;;;;;;;;;;0.87;70.17;96298.59;3618320;39;20180;-60
2021/04/10 02:51:50;;;;;;;;;;;;;;;0.77;70.09;96291.91;3618937;39;19949;-59
2021/04/10 02:54:24;;;;;;;;;;;;;;;0.72;70.71;96290.84;3630379;39;19950;-58
2021/04/10 02:57:18;;;;;;;;;;;;;;;0.67;70.78;96285.44;3623326;39;19949;-58
2021/04/10 02:59:48;;;;;;;;;;;;;;;0.60;71.41;96299.13;3620057;39;19946;-59
2021/04/10 03:02:16;;;;;;;;;;;;;;;0.54;71.11;96296.44;3608180;39;19949;-58
2021/04/10 03:04:45;;;;;;;;;;;;;;;0.45;70.74;96306.13;3620280;39;20169;-58
2021/04/10 03:07:13;;;;;;;;;;;;;;;0.32;70.69;96300.78;3623239;39;19966;-59
2021/04/10 03:09:43;;;;;;;;;;;;;;;0.24;70.56;96297.31;3622497;39;19941;-59
2021/04/10 03:12:15;;;;;;;;;;;;;;;0.17;70.86;96295.59;3625700;39;20187;-65
2021/04/10 03:14:43;;;;;;;;;;;;;;;0.08;71.61;96302.66;3618051;39;19943;-58
2021/04/10 03:17:15;;;;;;;;;;;;;;;-0.06;71.04;96283.53;3619856;39;20219;-58
2021/04/10 03:19:44;;;;;;;;;;;;;;;-0.02;71.53;96306.34;3616191;39;21283;-59
2021/04/10 03:22:14;;;;;;;;;;;;;;;-0.11;71.30;96297.06;3628477;39;19963;-58
2021/04/10 03:24:42;;;;;;;;;;;;;;;-0.15;70.81;96300.97;3621500;39;19939;-59
2021/04/10 03:27:11;;;;;;;;;;;;;;;-0.25;71.71;96303.84;3631798;39;19941;-58
2021/04/10 03:29:38;;;;;;;;;;;;;;;-0.33;71.81;96298.72;3621525;39;19939;-59
2021/04/10 03:32:08;;;;;;;;;;;;;;;-0.37;72.14;96300.09;3622982;39;19949;-59
2021/04/10 03:34:40;;;;;;;;;;;;;;;-0.35;72.89;96300.69;3613038;39;19944;-60
2021/04/10 03:37:09;;;;;;;;;;;;;;;-0.40;73.00;96290.84;3612508;39;19941;-58
2021/04/10 03:39:38;;;;;;;;;;;;;;;-0.45;72.59;96293.19;3626600;39;19943;-58
2021/04/10 03:42:11;;;;;;;;;;;;;;;-0.49;72.43;96287.53;3623079;39;19931;-58
2021/04/10 03:44:39;;;;;;;;;;;;;;;-0.50;73.12;96293.72;3607013;39;19959;-60
2021/04/10 03:47:26;;;;;;;;;;;;;;;-0.50;72.86;96298.06;3614922;39;19947;-59
2021/04/10 03:49:54;;;;;;;;;;;;;;;-0.49;74.41;96310.06;3619751;39;19951;-58
2021/04/10 03:52:21;;;;;;;;;;;;;;;-0.50;74.26;96308.44;3630171;39;19943;-60
2021/04/10 03:54:48;;;;;;;;;;;;;;;-0.62;73.51;96305.47;3618849;39;19949;-58
2021/04/10 03:57:20;;;;;;;;;;;;;;;-0.66;73.70;96309.41;3617437;39;19935;-58
2021/04/10 03:59:47;;;;;;;;;;;;;;;-0.72;74.20;96302.31;3627390;39;19973;-58
2021/04/10 04:02:19;;;;;;;;;;;;;;;-0.74;74.83;96307.66;3619509;39;19935;-58
2021/04/10 04:04:47;;;;;;;;;;;;;;;-0.74;74.61;96305.09;3610153;39;19947;-58
2021/04/10 04:07:14;;;;;;;;;;;;;;;-0.73;74.58;96303.28;3612037;39;19939;-58
2021/04/10 04:09:41;;;;;;;;;;;;;;;-0.71;74.85;96303.91;3619500;39;19935;-60
2021/04/10 04:12:09;;;;;;;;;;;;;;;-0.71;74.16;96302.16;3626011;39;19935;-60
2021/04/10 04:14:37;;;;;;;;;;;;;;;-0.71;74.29;96309.91;3622327;39;20096;-60
2021/04/10 04:17:06;;;;;;;;;;;;;;;-0.70;74.61;96321.06;3623916;39;20521;-60
2021/04/10 04:19:33;;;;;;;;;;;;;;;-0.76;73.84;96317.41;3623225;39;19936;-59
2021/04/10 04:22:01;;;;;;;;;;;;;;;-0.87;74.57;96297.91;3635038;39;19950;-60
2021/04/10 04:24:28;;;;;;;;;;;;;;;-0.86;75.12;96316.84;3624263;39;20146;-58
2021/04/10 04:26:56;;;;;;;;;;;;;;;-0.88;75.23;96322.19;3626542;39;20154;-58
2021/04/10 04:29:23;;;;;;;;;;;;;;;-0.87;75.42;96325.56;3622738;39;19939;-58
2021/04/10 04:31:50;;;;;;;;;;;;;;;-0.83;74.74;96324.25;3619919;39;19943;-60
2021/04/10 04:34:18;;;;;;;;;;;;;;;-0.78;75.10;96327.13;3615948;39;19935;-59
2021/04/10 04:36:44;;;;;;;;;;;;;;;-0.71;74.45;96322.88;3622365;39;19953;-59
2021/04/10 04:39:12;;;;;;;;;;;;;;;-0.69;74.21;96331.28;3622271;39;20007;-59
2021/04/10 04:41:39;;;;;;;;;;;;;;;-0.32;73.94;96342.63;3629292;39;19941;-58
2021/04/10 04:44:06;;;;;;;;;;;;;;;0.19;73.09;96340.34;3619661;39;20245;-58
2021/04/10 04:46:33;;;;;;;;;;;;;;;0.71;71.05;96343.78;3614126;39;20235;-59
2021/04/10 04:49:01;;;;;;;;;;;;;;;1.15;71.19;96331.63;3620499;39;19946;-60
2021/04/10 04:51:28;;;;;;;;;;;;;;;1.77;69.33;96337.97;3621626;39;19935;-59
2021/04/10 04:53:55;;;;;;;;;;;;;;;2.02;67.12;96347.94;3620051;39;19942;-61
2021/04/10 04:56:22;;;;;;;;;;;;;;;2.32;67.39;96345.09;3617688;39;19935;-59
2021/04/10 04:58:49;;;;;;;;;;;;;;;2.88;66.08;96338.94;3620807;39;19947;-59
2021/04/10 05:01:17;;;;;;;;;;;;;;;3.51;62.52;96345.66;3618134;39;19939;-59
2021/04/10 05:03:44;;;;;;;;;;;;;;;3.93;62.44;96353.28;3628173;39;20318;-60
2021/04/10 05:06:11;;;;;;;;;;;;;;;4.72;60.67;96345.44;3627521;39;19935;-60
2021/04/10 05:08:39;;;;;;;;;;;;;;;5.31;56.01;96353.19;3616198;39;19939;-60
2021/04/10 05:11:06;;;;;;;;;;;;;;;5.39;56.44;96349.50;3619048;39;19947;-60
2021/04/10 05:13:33;;;;;;;;;;;;;;;5.36;55.32;96349.94;3621422;39;19939;-59
2021/04/10 05:16:00;;;;;;;;;;;;;;;5.31;55.77;96358.41;3623790;39;19950;-60
2021/04/10 05:18:27;;;;;;;;;;;;;;;5.30;56.38;96369.09;3623259;39;19943;-60
2021/04/10 05:20:54;;;;;;;;;;;;;;;5.13;56.54;96364.34;3619776;39;19939;-59
2021/04/10 05:23:22;;;;;;;;;;;;;;;4.86;57.16;96356.63;3627012;39;19949;-60
2021/04/10 05:25:50;;;;;;;;;;;;;;;4.64;57.83;96376.22;3630781;39;19953;-60
2021/04/10 05:28:20;;;;;;;;;;;;;;;4.28;58.74;96368.69;3630988;39;19953;-61
2021/04/10 05:30:47;;;;;;;;;;;;;;;4.06;59.79;96365.50;3623375;39;20180;-60
2021/04/10 05:33:14;;;;;;;;;;;;;;;3.83;60.34;96369.34;3621036;39;19939;-59
2021/04/10 05:35:43;;;;;;;;;;;;;;;3.49;60.96;96359.91;3621947;39;19941;-61
2021/04/10 05:38:11;;;;;;;;;;;;;;;3.41;61.70;96365.28;3621448;39;22725;-59
2021/04/10 05:40:39;;;;;;;;;;;;;;;3.30;62.44;96370.09;3612432;39;19935;-60
2021/04/10 05:43:06;;;;;;;;;;;;;;;3.25;62.57;96367.28;3623087;39;19931;-59
2021/04/10 05:45:33;;;;;;;;;;;;;;;3.19;63.35;96370.69;3621803;39;19950;-59
2021/04/10 05:48:00;;;;;;;;;;;;;;;3.16;63.42;96368.47;3621851;39;19931;-60
2021/04/10 05:50:27;;;;;;;;;;;;;;;3.07;63.67;96373.84;3623519;39;19949;-59
2021/04/10 05:52:55;;;;;;;;;;;;;;;3.07;63.66;96366.03;3604188;39;20097;-59
2021/04/10 05:55:22;;;;;;;;;;;;;;;3.10;63.94;96359.63;3620974;39;19961;-60
2021/04/10 05:57:49;;;;;;;;;;;;;;;3.18;63.60;96375.09;3627696;39;19935;-59
2021/04/10 06:00:16;;;;;;;;;;;;;;;3.21;63.45;96376.50;3619952;39;19935;-59
2021/04/10 06:02:43;;;;;;;;;;;;;;;3.26;63.55;96376.72;3615027;39;20414;-60
2021/04/10 06:05:11;;;;;;;;;;;;;;;3.36;63.24;96384.16;3621398;39;19936;-60
2021/04/10 06:07:44;;;;;;;;;;;;;;;3.44;63.63;96378.75;3611982;39;19943;-59
2021/04/10 06:10:12;;;;;;;;;;;;;;;3.50;64.29;96377.16;3624350;39;19965;-60
2021/04/10 06:12:40;;;;;;;;;;;;;;;3.58;64.78;96376.16;3624633;39;19949;-59
2021/04/10 06:15:09;;;;;;;;;;;;;;;3.68;64.17;96379.19;3615855;39;19943;-59
2021/04/10 06:17:36;;;;;;;;;;;;;;;3.78;63.56;96386.59;3617073;39;19947;-60
2021/04/10 06:20:04;;;;;;;;;;;;;;;3.86;63.22;96389.03;3619362;39;19956;-59
2021/04/10 06:22:37;;;;;;;;;;;;;;;4.00;63.16;96380.16;3617205;39;19943;-59
2021/04/10 06:25:05;;;;;;;;;;;;;;;4.13;63.02;96383.75;3604942;39;20211;-60
2021/04/10 06:27:33;;;;;;;;;;;;;;;4.20;62.76;96384.56;3617526;39;19939;-59
2021/04/10 06:30:01;;;;;;;;;;;;;;;4.30;62.99;96377.13;3619566;39;19943;-63
2021/04/10 06:32:28;;;;;;;;;;;;;;;4.46;62.61;96372.47;3602052;39;19943;-61
2021/04/10 06:34:55;;;;;;;;;;;;;;;4.60;62.45;96368.81;3618878;39;19949;-59
2021/04/10 06:37:22;;;;;;;;;;;;;;;4.67;61.40;96370.59;3618060;39;20019;-60
2021/04/10 06:39:49;;;;;;;;;;;;;;;4.73;60.76;96365.34;3616493;39;19949;-59
2021/04/10 06:42:16;;;;;;;;;;;;;;;4.83;60.99;96371.94;3615517;39;19943;-60
2021/04/10 06:44:43;;;;;;;;;;;;;;;4.95;60.79;96361.66;3614311;39;19992;-61
2021/04/10 06:47:14;;;;;;;;;;;;;;;5.01;60.51;96356.38;3613548;39;19949;-58
2021/04/10 06:49:44;;;;;;;;;;;;;;;5.14;61.12;96365.16;3615063;39;19947;-58
2021/04/10 06:52:15;;;;;;;;;;;;;;;5.19;60.17;96350.44;3608367;39;20293;-58
2021/04/10 06:54:45;;;;;;;;;;;;;;;5.40;59.68;96358.97;3612788;39;19943;-58
2021/04/10 06:57:19;;;;;;;;;;;;;;;5.55;59.13;96358.66;3609332;39;19939;-59
2021/04/10 06:59:59;;;;;;;;;;;;;;;5.62;58.37;96361.22;3628544;39;19945;-62
2021/04/10 07:02:26;;;;;;;;;;;;;;;5.79;58.77;96358.88;3623215;39;19949;-58
2021/04/10 07:04:57;;;;;;;;;;;;;;;5.96;58.04;96351.31;3606359;39;19949;-58
2021/04/10 07:07:25;;;;;;;;;;;;;;;6.13;57.57;96354.22;3611462;39;20851;-61
2021/04/10 07:09:52;;;;;;;;;;;;;;;6.33;57.09;96363.69;3618160;39;20737;-58
2021/04/10 07:12:19;;;;;;;;;;;;;;;6.49;56.79;96365.72;3615054;39;19941;-58
2021/04/10 07:14:46;;;;;;;;;;;;;;;6.66;56.46;96363.31;3617086;39;19974;-58
2021/04/10 07:17:14;;;;;;;;;;;;;;;6.83;55.47;96358.28;3616042;39;19935;-58
2021/04/10 07:19:41;;;;;;;;;;;;;;;6.98;53.80;96350.03;3617366;39;19954;-60
2021/04/10 07:22:08;;;;;;;;;;;;;;;7.15;54.28;96347.56;3615331;39;20244;-58
2021/04/10 07:24:46;;;;;;;;;;;;;;;7.32;53.94;96344.34;3614409;39;19974;-58
2021/04/10 07:27:15;;;;;;;;;;;;;;;7.49;53.26;96339.22;3624839;39;20005;-59
2021/04/10 07:29:43;;;;;;;;;;;;;;;7.62;50.80;96333.78;3624485;39;19949;-59
2021/04/10 07:32:24;;;;;;;;;;;;;;;7.77;51.66;96330.72;3609998;39;19947;-59
2021/04/10 07:34:52;;;;;;;;;;;;;;;7.93;51.10;96325.81;3614928;39;19957;-58
2021/04/10 07:37:29;;;;;;;;;;;;;;;8.12;50.29;96329.13;3614007;39;19946;-57
2021/04/10 07:39:57;;;;;;;;;;;;;;;8.30;50.71;96329.00;3612804;39;20310;-58
2021/04/10 07:42:25;;;;;;;;;;;;;;;8.48;48.95;96332.53;3624119;39;19953;-60
2021/04/10 07:44:52;;;;;;;;;;;;;;;8.63;48.97;96324.16;3622027;39;19947;-60
2021/04/10 07:47:19;;;;;;;;;;;;;;;8.78;48.52;96334.19;3618554;39;19943;-59
2021/04/10 07:49:46;;;;;;;;;;;;;;;8.89;47.80;96327.28;3629756;39;19951;-58
2021/04/10 07:52:13;;;;;;;;;;;;;;;9.05;47.26;96320.47;3630724;39;19973;-59
2021/04/10 07:54:42;;;;;;;;;;;;;;;9.16;46.24;96316.19;3621585;39;20413;-59
2021/04/10 07:57:10;;;;;;;;;;;;;;;9.21;47.02;96300.50;3618689;39;19953;-59
2021/04/10 07:59:50;;;;;;;;;;;;;;;9.52;46.77;96322.88;3622837;39;20375;-59
2021/04/10 08:02:18;;;;;;;;;;;;;;;9.68;45.60;96325.75;3616835;39;19939;-57
2021/04/10 08:04:58;;;;;;;;;;;;;;;9.75;46.41;96318.50;3621119;39;20149;-58
2021/04/10 08:07:25;;;;;;;;;;;;;;;9.88;46.62;96324.47;3614252;39;19945;-57
2021/04/10 08:10:00;;;;;;;;;;;;;;;10.02;45.50;96319.66;3621997;39;19943;-57
2021/04/10 08:12:32;;;;;;;;;;;;;;;10.16;44.58;96326.97;3621815;39;19941;-57
2021/04/10 08:15:00;;;;;;;;;;;;;;;10.33;44.45;96320.09;3622653;39;20379;-59
2021/04/10 08:17:34;;;;;;;;;;;;;;;10.53;43.64;96325.66;3612221;39;19935;-57
2021/04/10 08:20:16;;;;;;;;;;;;;;;10.70;43.19;96330.88;3622984;39;19936;-57
2021/04/10 08:22:43;;;;;;;;;;;;;;;10.86;42.93;96325.78;3613610;39;19935;-56
2021/04/10 08:25:11;;;;;;;;;;;;;;;10.99;42.25;96321.94;3625108;39;19949;-58
2021/04/10 08:27:38;;;;;;;;;;;;;;;11.07;41.28;96321.53;3624914;39;20284;-58
2021/04/10 08:30:07;;;;;;;;;;;;;;;11.11;41.61;96332.38;3616141;39;19949;-58
2021/04/10 08:32:34;;;;;;;;;;;;;;;11.24;41.80;96334.63;3626776;39;20208;-65
2021/04/10 08:35:02;;;;;;;;;;;;;;;11.32;41.71;96336.03;3620753;39;19941;-57
2021/04/10 08:37:30;;;;;;;;;;;;;;;11.41;41.00;96344.25;3621404;39;20307;-56
2021/04/10 08:39:58;;;;;;;;;;;;;;;11.51;41.02;96328.50;3617244;39;19953;-57
2021/04/10 08:42:26;;;;;;;;;;;;;;;11.57;40.74;96338.09;3620162;39;19943;-57
2021/04/10 08:44:55;;;;;;;;;;;;;;;11.64;39.55;96335.25;3621696;39;20211;-57
2021/04/10 08:47:22;;;;;;;;;;;;;;;11.63;38.70;96334.41;3622213;39;19951;-57
2021/04/10 08:49:50;;;;;;;;;;;;;;;11.68;39.55;96333.69;3621985;39;19965;-57
2021/04/10 08:52:36;;;;;;;;;;;;;;;11.76;39.56;96329.75;3622133;39;19935;-59
2021/04/10 08:55:09;;;;;;;;;;;;;;;11.87;40.24;96331.47;3620897;39;20285;-58
2021/04/10 08:57:38;;;;;;;;;;;;;;;11.96;39.20;96332.56;3619753;39;20381;-57
2021/04/10 09:00:11;;;;;;;;;;;;;;;12.04;38.78;96331.34;3612248;39;19931;-59
2021/04/10 09:02:47;;;;;;;;;;;;;;;12.07;38.50;96332.66;3616238;39;19942;-58
2021/04/10 09:05:15;;;;;;;;;;;;;;;12.13;39.03;96324.50;3629373;39;19935;-58
2021/04/10 09:07:45;;;;;;;;;;;;;;;12.25;38.83;96326.16;3618911;39;19941;-58
2021/04/10 09:10:24;;;;;;;;;;;;;;;12.30;37.49;96329.63;3614200;39;19947;-58
2021/04/10 09:13:06;;;;;;;;;;;;;;;12.26;37.56;96331.19;3620024;39;20329;-58
2021/04/10 09:15:33;;;;;;;;;;;;;;;12.35;37.68;96325.44;3623452;39;19941;-58
2021/04/10 09:18:02;;;;;;;;;;;;;;;12.45;38.07;96331.56;3622890;39;19941;-58
2021/04/10 09:20:44;;;;;;;;;;;;;;;12.53;37.44;96321.56;3616692;39;19993;-59
2021/04/10 09:23:15;;;;;;;;;;;;;;;12.63;37.18;96312.84;3610861;39;19945;-59
2021/04/10 09:25:42;;;;;;;;;;;;;;;12.68;36.60;96320.81;3620666;39;20272;-61
2021/04/10 09:28:09;;;;;;;;;;;;;;;12.67;36.84;96313.94;3622899;39;19938;-57
2021/04/10 09:30:37;;;;;;;;;;;;;;;12.66;37.47;96312.34;3625169;39;19943;-57
2021/04/10 09:33:27;;;;;;;;;;;;;;;12.78;36.41;96310.25;3617703;39;19938;-57
2021/04/10 09:35:54;;;;;;;;;;;;;;;12.84;36.76;96311.88;3618275;39;19950;-57
2021/04/10 09:38:39;;;;;;;;;;;;;;;12.89;37.23;96314.53;3620045;39;19949;-58
2021/04/10 09:41:06;;;;;;;;;;;;;;;12.96;36.37;96309.00;3621969;39;20306;-59
2021/04/10 09:43:33;;;;;;;;;;;;;;;13.04;37.20;96308.50;3622163;39;19935;-57
2021/04/10 09:46:00;;;;;;;;;;;;;;;13.06;36.50;96313.53;3622734;39;20276;-59
2021/04/10 09:48:28;;;;;;;;;;;;;;;13.10;37.27;96304.00;3620519;39;19939;-59
2021/04/10 09:50:55;;;;;;;;;;;;;;;13.15;35.58;96295.28;3617442;39;19943;-59
2021/04/10 09:53:23;;;;;;;;;;;;;;;13.15;35.60;96289.97;3622180;39;20044;-59
2021/04/10 09:56:01;;;;;;;;;;;;;;;13.13;35.30;96292.09;3620962;39;19939;-57
2021/04/10 09:58:45;;;;;;;;;;;;;;;13.12;36.55;96280.69;3616678;39;19937;-58
2021/04/10 10:01:15;;;;;;;;;;;;;;;13.29;35.94;96295.53;3617496;39;20229;-58
2021/04/10 10:03:46;;;;;;;;;;;;;;;13.43;36.03;96283.41;3617012;39;19943;-59
2021/04/10 10:06:21;;;;;;;;;;;;;;;13.49;36.26;96282.31;3625473;39;19947;-58
2021/04/10 10:08:48;;;;;;;;;;;;;;;13.60;35.54;96285.78;3605746;39;19935;-58
2021/04/10 10:11:15;;;;;;;;;;;;;;;13.66;34.22;96282.06;3616878;39;19942;-59
2021/04/10 10:13:43;;;;;;;;;;;;;;;13.72;35.14;96280.22;3610976;39;19951;-58
2021/04/10 10:16:10;;;;;;;;;;;;;;;13.78;34.53;96278.38;3614787;39;19942;-59
2021/04/10 10:18:41;;;;;;;;;;;;;;;13.74;33.99;96272.00;3616850;39;19951;-59
2021/04/10 10:21:14;;;;;;;;;;;;;;;13.74;33.70;96277.28;3614339;39;19949;-60
2021/04/10 10:24:02;;;;;;;;;;;;;;;13.82;35.07;96274.09;3621289;39;20365;-62
2021/04/10 10:26:37;;;;;;;;;;;;;;;13.91;34.22;96263.75;3617748;39;20008;-59
2021/04/10 10:29:05;;;;;;;;;;;;;;;13.96;35.09;96272.50;3615453;39;20132;-63
2021/04/10 10:31:39;;;;;;;;;;;;;;;14.05;34.68;96270.09;3616050;39;19944;-59
2021/04/10 10:34:10;;;;;;;;;;;;;;;14.12;34.37;96265.28;3608652;39;19957;-58
2021/04/10 10:36:38;;;;;;;;;;;;;;;14.19;33.42;96256.25;3616919;39;20269;-58
2021/04/10 10:39:07;;;;;;;;;;;;;;;14.18;33.24;96254.66;3618138;39;19955;-58
2021/04/10 10:41:43;;;;;;;;;;;;;;;14.25;33.00;96255.16;3621791;39;19941;-59
2021/04/10 10:44:10;;;;;;;;;;;;;;;14.29;32.47;96256.22;3617762;39;19939;-62
2021/04/10 10:46:38;;;;;;;;;;;;;;;14.33;32.09;96253.81;3620150;39;19951;-59
2021/04/10 10:49:09;;;;;;;;;;;;;;;14.33;33.62;96251.16;3619119;39;19949;-58
2021/04/10 10:51:40;;;;;;;;;;;;;;;14.44;33.33;96250.06;3620296;39;19943;-58
2021/04/10 10:54:08;;;;;;;;;;;;;;;14.57;33.44;96240.72;3629351;39;19950;-59
2021/04/10 10:56:35;;;;;;;;;;;;;;;14.62;32.51;96240.69;3609305;39;19935;-60
2021/04/10 10:59:05;;;;;;;;;;;;;;;14.63;31.98;96233.53;3618454;39;19943;-58
2021/04/10 11:01:40;;;;;;;;;;;;;;;14.68;32.93;96228.19;3619680;39;19939;-59
2021/04/10 11:04:10;;;;;;;;;;;;;;;14.71;32.42;96231.09;3621883;39;20016;-58
2021/04/10 11:06:37;;;;;;;;;;;;;;;14.75;33.30;96234.03;3623081;39;19942;-58
2021/04/10 11:09:06;;;;;;;;;;;;;;;14.81;31.83;96226.81;3619970;39;19935;-58
2021/04/10 11:11:44;;;;;;;;;;;;;;;14.89;32.97;96228.88;3619219;39;19935;-59
2021/04/10 11:14:17;;;;;;;;;;;;;;;14.98;32.29;96221.91;3614264;39;19941;-60
2021/04/10 11:16:45;;;;;;;;;;;;;;;15.00;32.54;96213.69;3621100;39;19935;-60
2021/04/10 11:19:23;;;;;;;;;;;;;;;15.21;32.05;96219.63;3627360;39;19943;-59
2021/04/10 11:21:51;;;;;;;;;;;;;;;15.27;31.56;96221.19;3620528;39;19935;-59
2021/04/10 11:24:18;;;;;;;;;;;;;;;15.28;30.97;96220.13;3624397;39;20293;-61
2021/04/10 11:26:47;;;;;;;;;;;;;;;15.30;30.59;96217.16;3617582;39;19935;-58
2021/04/10 11:29:21;;;;;;;;;;;;;;;15.28;100.00;96214.78;3621402;39;20310;-59
2021/04/10 11:32:04;;;;;;;;;;;;;;;-146.28;100.00;62448.88;3620663;39;19945;-59
2021/04/10 11:34:37;;;;;;;;;;;;;;;15.29;31.05;96208.41;3624530;39;19935;-60
2021/04/10 11:37:06;;;;;;;;;;;;;;;15.45;30.72;96208.25;3622916;39;20281;-60
2021/04/10 11:39:49;;;;;;;;;;;;;;;15.51;30.98;96199.97;3624353;39;19949;-58
2021/04/10 11:42:24;;;;;;;;;;;;;;;15.61;100.00;96207.06;3617011;39;19949;-59
2021/04/10 11:44:52;;;;;;;;;;;;;;;-146.28;100.00;62448.88;3619230;39;19945;-59
2021/04/10 11:47:21;;;;;;;;;;;;;;;-146.28;100.00;62448.88;3623690;39;19950;-58
2021/04/10 11:49:48;;;;;;;;;;;;;;;-146.28;100.00;62448.88;3622772;39;19942;-59
2021/04/10 11:52:16;;;;;;;;;;;;;;;15.63;100.00;62448.88;3623242;39;19946;-58
2021/04/10 11:54:43;;;;;;;;;;;;;;;-146.28;100.00;62448.88;3603850;39;20737;-58
2021/04/10 11:57:27;;;;;;;;;;;;;;;-146.28;100.00;62448.88;3619382;39;19989;-59
2021/04/10 12:00:02;;;;;;;;;;;;;;;-146.28;100.00;62448.88;3621653;39;19943;-59
2021/04/10 12:02:35;;;;;;;;;;;;;;;-146.28;100.00;62448.88;3617933;39;20202;-59
2021/04/10 12:05:18;;;;;;;;;;;;;;;-146.28;100.00;62448.88;3611685;39;19935;-59
2021/04/10 12:08:05;;;;;;;;;;;;;;;-146.28;100.00;62448.88;3619616;39;19957;-59
2021/04/10 12:10:33;;;;;;;;;;;;;;;-146.28;100.00;62448.88;3621750;39;19939;-58
2021/04/10 12:13:00;;;;;;;;;;;;;;;-146.28;100.00;62448.88;3605818;39;19953;-58
2021/04/10 12:15:28;;;;;;;;;;;;;;;-146.28;100.00;62448.88;3621303;39;19943;-57
2021/04/10 12:17:55;;;;;;;;;;;;;;;-146.28;100.00;62448.88;3617433;39;20140;-60
2021/04/10 12:20:22;;;;;;;;;;;;;;;-146.28;100.00;62448.88;3618448;39;19950;-58
2021/04/10 12:22:50;;;;;;;;;;;;;;;-146.28;100.00;62448.88;3615901;39;19947;-60
2021/04/10 12:25:17;;;;;;;;;;;;;;;-146.28;100.00;62448.88;3619017;39;19943;-60
2021/04/10 12:27:44;;;;;;;;;;;;;;;-146.28;100.00;62448.88;3618351;39;19953;-59
2021/04/10 12:30:12;;;;;;;;;;;;;;;-146.28;100.00;62448.88;3617429;39;19947;-59
2021/04/10 12:32:39;;;;;;;;;;;;;;;-146.28;100.00;62448.88;3619287;39;19935;-59
2021/04/10 12:35:06;;;;;;;;;;;;;;;-146.28;100.00;62448.88;3614021;39;19935;-59
2021/04/10 12:37:33;;;;;;;;;;;;;;;-146.28;100.00;62448.88;3614294;39;19935;-57
2021/04/10 12:40:00;;;;;;;;;;;;;;;-146.28;100.00;62448.88;3624528;39;19943;-60
2021/04/10 12:42:27;;;;;;;;;;;;;;;-146.28;100.00;62448.88;3619274;39;19935;-57
2021/04/10 12:44:55;;;;;;;;;;;;;;;-146.28;100.00;62448.88;3625515;39;19935;-57
2021/04/10 12:47:22;;;;;;;;;;;;;;;-146.28;100.00;62448.88;3614747;39;19943;-58
2021/04/10 12:49:49;;;;;;;;;;;;;;;-146.28;100.00;62448.88;3622535;39;19935;-57
2021/04/10 12:52:16;;;;;;;;;;;;;;;-146.28;100.00;62448.88;3604224;39;19953;-58
2021/04/10 12:54:44;;;;;;;;;;;;;;;-146.28;100.00;62448.88;3613358;39;19939;-59
2021/04/10 12:57:13;;;;;;;;;;;;;;;-146.28;100.00;62448.88;3617786;39;19941;-58
2021/04/10 12:59:40;;;;;;;;;;;;;;;-146.28;100.00;62448.88;3611599;39;19953;-60
2021/04/10 13:02:07;;;;;;;;;;;;;;;-146.28;100.00;62448.88;3609240;39;19942;-58